Time;durP1;ratioP1;P1;durP2;ratioP2;P2;SDS_P1;SDS_P2;PMS_P1;PMS_P2;Temp;Humidity;BMP_temperature;BMP_pressure;BME280_temperature;BME280_humidity;BME280_pressure;Samples;Min_cycle;Max_cycle;Signal;HPM_P1;HPM_P2
2023/02/18 00:00:26;;;;;;;23.23;17.10;;;11.60;90.60;;;;;;5036874;28;20017;-78
2023/02/18 00:02:52;;;;;;;22.30;16.20;;;11.60;90.70;;;;;;5040005;28;20061;-76
2023/02/18 00:05:18;;;;;;;24.35;16.35;;;11.60;90.50;;;;;;5022435;28;20026;-73
2023/02/18 00:07:44;;;;;;;23.02;15.98;;;11.60;90.60;;;;;;5021180;28;20044;-77
2023/02/18 00:10:14;;;;;;;24.35;16.67;;;11.60;90.60;;;;;;5038440;28;20036;-75
2023/02/18 00:12:40;;;;;;;21.20;15.95;;;11.60;90.60;;;;;;5037093;28;20040;-81
2023/02/18 00:15:07;;;;;;;23.40;15.95;;;11.60;90.70;;;;;;5034517;28;20688;-76
2023/02/18 00:17:32;;;;;;;23.08;16.48;;;11.60;90.60;;;;;;5017553;28;20029;-73
2023/02/18 00:19:58;;;;;;;23.92;16.08;;;11.60;90.70;;;;;;5039385;28;20024;-79
2023/02/18 00:22:24;;;;;;;24.10;16.52;;;11.60;90.70;;;;;;5042232;28;20706;-78
2023/02/18 00:24:50;;;;;;;26.23;17.63;;;11.60;90.70;;;;;;5041334;28;20208;-72
2023/02/18 00:27:16;;;;;;;26.35;17.27;;;11.60;90.70;;;;;;5039151;28;20037;-81
2023/02/18 00:29:42;;;;;;;25.15;16.70;;;11.50;90.70;;;;;;5037667;28;20052;-78
2023/02/18 00:32:08;;;;;;;25.02;17.13;;;11.60;90.60;;;;;;5038544;28;20037;-76
2023/02/18 00:34:34;;;;;;;24.40;17.58;;;11.60;90.60;;;;;;5022895;28;20139;-77
2023/02/18 00:37:00;;;;;;;22.48;15.73;;;11.60;90.50;;;;;;5037647;28;20120;-75
2023/02/18 00:39:25;;;;;;;20.80;14.48;;;11.60;90.50;;;;;;5023731;28;20040;-79
2023/02/18 00:41:51;;;;;;;20.00;13.93;;;11.60;90.50;;;;;;5020884;28;20045;-80
2023/02/18 00:44:17;;;;;;;21.92;12.60;;;11.50;90.50;;;;;;5021181;28;20037;-83
2023/02/18 00:46:43;;;;;;;21.10;13.60;;;11.50;90.80;;;;;;5038850;28;20140;-78
2023/02/18 00:49:09;;;;;;;17.83;12.32;;;11.50;90.70;;;;;;5036653;28;20021;-75
2023/02/18 00:51:35;;;;;;;20.85;12.43;;;11.50;90.60;;;;;;5038947;28;20737;-79
2023/02/18 00:54:01;;;;;;;21.40;12.60;;;11.50;90.80;;;;;;5039750;28;20036;-72
2023/02/18 00:56:27;;;;;;;19.10;11.90;;;11.50;90.80;;;;;;5040563;28;20062;-77
2023/02/18 00:58:53;;;;;;;20.88;12.23;;;11.50;90.70;;;;;;5037759;28;20037;-81
2023/02/18 01:01:19;;;;;;;21.42;12.27;;;11.50;90.80;;;;;;5038444;28;20077;-73
2023/02/18 01:03:45;;;;;;;17.02;11.98;;;11.50;90.80;;;;;;5039988;28;21236;-76
2023/02/18 01:06:12;;;;;;;17.70;11.48;;;11.50;90.70;;;;;;5039752;28;20040;-74
2023/02/18 01:08:39;;;;;;;20.48;13.65;;;11.50;90.70;;;;;;5038751;28;20029;-77
2023/02/18 01:11:06;;;;;;;18.05;11.98;;;11.40;90.80;;;;;;5040263;28;20143;-73
2023/02/18 01:13:32;;;;;;;16.65;11.75;;;11.40;90.70;;;;;;5040954;28;20021;-79
2023/02/18 01:15:57;;;;;;;15.07;10.00;;;11.50;90.60;;;;;;5042634;28;20090;-74
2023/02/18 01:18:24;;;;;;;15.73;9.30;;;11.50;90.50;;;;;;5041652;28;20432;-73
2023/02/18 01:20:50;;;;;;;12.85;8.88;;;11.50;90.40;;;;;;5026628;28;20044;-77
2023/02/18 01:23:17;;;;;;;13.43;9.20;;;11.50;90.30;;;;;;5027221;28;20052;-75
2023/02/18 01:25:43;;;;;;;13.23;9.45;;;11.50;90.30;;;;;;5046994;28;20423;-73
2023/02/18 01:28:12;;;;;;;12.10;8.88;;;11.40;90.40;;;;;;5041176;28;20033;-76
2023/02/18 01:30:37;;;;;;;14.15;9.48;;;11.40;90.40;;;;;;5041759;28;20041;-77
2023/02/18 01:33:03;;;;;;;15.15;9.75;;;11.40;90.40;;;;;;5042494;28;20040;-73
2023/02/18 01:35:29;;;;;;;15.02;10.25;;;11.50;90.30;;;;;;5037600;28;20071;-72
2023/02/18 01:37:54;;;;;;;14.30;10.55;;;11.50;90.20;;;;;;5042659;28;20025;-80
2023/02/18 01:40:27;;;;;;;15.05;10.30;;;11.50;90.00;;;;;;5041395;28;20080;-72
2023/02/18 01:42:52;;;;;;;13.60;9.30;;;11.40;90.10;;;;;;5042287;28;20048;-74
2023/02/18 01:45:34;;;;;;;14.00;9.80;;;11.50;90.20;;;;;;5040066;28;20103;-74
2023/02/18 01:48:14;;;;;;;13.93;9.77;;;11.40;90.30;;;;;;5038988;28;20081;-75
2023/02/18 01:50:44;;;;;;;13.65;9.18;;;11.40;90.20;;;;;;5043545;28;20063;-77
2023/02/18 01:53:15;;;;;;;12.85;8.60;;;11.40;90.10;;;;;;5022640;28;20053;-74
2023/02/18 01:55:42;;;;;;;12.15;8.02;;;11.40;90.00;;;;;;5037445;28;20104;-73
2023/02/18 01:58:08;;;;;;;13.90;7.95;;;11.40;90.10;;;;;;5040447;28;20044;-74
2023/02/18 02:00:35;;;;;;;11.93;7.90;;;11.40;90.20;;;;;;5040330;28;20016;-79
2023/02/18 02:03:01;;;;;;;11.30;7.78;;;11.40;90.20;;;;;;5041555;28;20243;-78
2023/02/18 02:05:31;;;;;;;10.65;7.30;;;11.40;90.30;;;;;;5039166;28;20022;-85
2023/02/18 02:07:57;;;;;;;9.38;6.80;;;11.50;90.20;;;;;;5038380;28;20480;-72
2023/02/18 02:10:29;;;;;;;9.57;6.20;;;11.40;90.10;;;;;;5039830;28;20099;-80
2023/02/18 02:13:18;;;;;;;11.23;7.07;;;11.40;90.10;;;;;;5040809;28;20044;-82
2023/02/18 02:15:51;;;;;;;11.82;7.18;;;11.40;90.30;;;;;;5041651;28;20760;-74
2023/02/18 02:18:20;;;;;;;9.15;6.25;;;11.40;90.30;;;;;;5043482;28;20109;-71
2023/02/18 02:21:19;;;;;;;7.88;5.35;;;11.40;90.20;;;;;;5041976;28;20040;-82
2023/02/18 02:24:24;;;;;;;10.77;6.13;;;11.40;90.40;;;;;;5044689;28;20041;-72
2023/02/18 02:27:11;;;;;;;9.23;5.63;;;11.40;90.40;;;;;;5007581;28;20036;-72
2023/02/18 02:29:48;;;;;;;10.40;6.20;;;11.40;90.60;;;;;;5044844;28;20040;-79
2023/02/18 02:32:48;;;;;;;9.00;6.00;;;11.40;90.60;;;;;;5044475;28;20041;-76
2023/02/18 02:35:19;;;;;;;8.52;5.60;;;11.30;90.80;;;;;;5028515;28;20052;-74
2023/02/18 02:37:57;;;;;;;9.20;5.75;;;11.30;90.80;;;;;;5042597;28;20040;-78
2023/02/18 02:40:51;;;;;;;12.95;5.70;;;11.30;91.00;;;;;;5042113;28;20035;-80
2023/02/18 02:43:58;;;;;;;10.52;6.32;;;11.30;91.20;;;;;;5042836;28;20051;-72
2023/02/18 02:46:37;;;;;;;9.27;6.07;;;11.30;91.30;;;;;;4988421;28;20072;-73
2023/02/18 02:49:22;;;;;;;11.25;6.30;;;11.20;91.40;;;;;;5042876;28;20392;-75
2023/02/18 02:51:52;;;;;;;11.73;6.47;;;11.20;91.50;;;;;;5048692;28;20554;-82
2023/02/18 02:54:26;;;;;;;10.88;6.68;;;11.10;91.70;;;;;;5047563;28;20871;-76
2023/02/18 02:57:21;;;;;;;12.82;7.20;;;11.10;92.00;;;;;;5041987;28;20041;-72
2023/02/18 02:59:51;;;;;;;13.05;8.38;;;11.10;92.20;;;;;;5030665;28;20075;-78
2023/02/18 03:02:36;;;;;;;19.52;10.20;;;11.10;92.30;;;;;;5042770;28;20060;-75
2023/02/18 03:05:13;;;;;;;18.15;10.32;;;11.10;92.40;;;;;;5043192;28;20438;-77
2023/02/18 03:08:12;;;;;;;15.63;9.95;;;11.10;92.40;;;;;;5041347;28;20068;-75
2023/02/18 03:11:02;;;;;;;17.50;11.45;;;11.00;92.50;;;;;;5042561;28;20017;-76
2023/02/18 03:13:46;;;;;;;16.05;10.60;;;11.00;92.70;;;;;;5042854;28;20500;-82
2023/02/18 03:16:25;;;;;;;14.70;10.00;;;11.10;92.70;;;;;;5042338;28;20048;-72
2023/02/18 03:19:13;;;;;;;15.07;11.15;;;11.00;92.70;;;;;;5028937;28;20029;-75
2023/02/18 03:21:50;;;;;;;13.90;9.27;;;11.00;92.60;;;;;;5044011;28;20037;-78
2023/02/18 03:24:23;;;;;;;13.07;8.13;;;11.00;92.60;;;;;;5041975;28;20164;-79
2023/02/18 03:26:54;;;;;;;13.18;9.13;;;11.00;92.40;;;;;;5040960;28;20044;-75
2023/02/18 03:29:21;;;;;;;13.25;8.10;;;11.00;92.60;;;;;;5038011;28;20485;-75
2023/02/18 03:31:53;;;;;;;10.32;7.07;;;11.00;92.60;;;;;;5042788;28;20095;-74
2023/02/18 03:34:25;;;;;;;9.38;6.22;;;11.00;92.50;;;;;;5041384;28;20124;-78
2023/02/18 03:36:52;;;;;;;8.25;6.05;;;11.00;92.40;;;;;;5022533;28;20037;-77
2023/02/18 03:39:20;;;;;;;9.25;6.03;;;10.90;92.40;;;;;;5040074;28;20516;-72
2023/02/18 03:41:46;;;;;;;9.20;5.68;;;11.00;92.50;;;;;;5024956;28;20053;-78
2023/02/18 03:44:12;;;;;;;9.13;5.68;;;10.90;92.50;;;;;;5041467;28;20570;-80
2023/02/18 03:46:44;;;;;;;9.45;6.35;;;10.90;92.60;;;;;;5038742;28;20237;-73
2023/02/18 03:49:13;;;;;;;9.65;6.60;;;10.90;92.70;;;;;;5040656;28;20033;-79
2023/02/18 03:51:40;;;;;;;10.13;7.47;;;10.90;92.60;;;;;;5039710;28;20048;-84
2023/02/18 03:54:06;;;;;;;11.43;7.63;;;10.90;92.80;;;;;;5042684;28;20075;-78
2023/02/18 03:56:33;;;;;;;10.85;7.97;;;10.90;92.80;;;;;;5023731;28;20049;-72
2023/02/18 03:58:59;;;;;;;11.32;7.38;;;10.90;92.80;;;;;;5037662;28;20028;-75
2023/02/18 04:01:24;;;;;;;11.68;7.72;;;10.90;92.90;;;;;;5038192;28;20017;-80
2023/02/18 04:03:50;;;;;;;11.63;8.45;;;10.90;92.90;;;;;;5038507;28;20412;-78
2023/02/18 04:06:16;;;;;;;12.05;7.82;;;10.90;92.90;;;;;;5039158;28;20048;-77
2023/02/18 04:08:41;;;;;;;13.00;8.48;;;10.80;92.90;;;;;;5039675;28;20040;-82
2023/02/18 04:11:07;;;;;;;11.88;8.15;;;10.90;92.90;;;;;;5040050;28;20473;-75
2023/02/18 04:13:33;;;;;;;11.90;8.82;;;10.90;92.90;;;;;;5040960;28;20056;-76
2023/02/18 04:15:59;;;;;;;11.73;8.20;;;10.90;92.90;;;;;;5022038;28;20079;-73
2023/02/18 04:18:24;;;;;;;11.68;7.93;;;10.80;92.90;;;;;;5040077;28;20035;-77
2023/02/18 04:20:50;;;;;;;11.40;7.30;;;10.90;92.90;;;;;;5040801;28;20954;-74
2023/02/18 04:23:16;;;;;;;11.95;7.82;;;10.80;92.90;;;;;;5038587;28;20060;-82
2023/02/18 04:25:42;;;;;;;11.95;8.30;;;10.80;92.90;;;;;;5039728;28;20449;-73
2023/02/18 04:28:10;;;;;;;11.90;7.60;;;10.80;92.80;;;;;;5021805;28;20032;-76
2023/02/18 04:30:35;;;;;;;12.35;7.82;;;10.80;92.80;;;;;;5038719;28;20037;-85
2023/02/18 04:33:01;;;;;;;11.48;7.38;;;10.80;92.80;;;;;;5023512;28;20021;-79
2023/02/18 04:35:27;;;;;;;12.52;6.70;;;10.80;92.70;;;;;;5039185;28;20033;-75
2023/02/18 04:37:52;;;;;;;11.75;6.28;;;10.80;92.60;;;;;;5022602;28;20029;-79
2023/02/18 04:40:18;;;;;;;11.52;6.53;;;10.80;92.40;;;;;;5041867;28;20028;-86
2023/02/18 04:42:44;;;;;;;12.48;6.05;;;10.70;92.20;;;;;;5044264;28;20800;-73
2023/02/18 04:45:09;;;;;;;10.30;5.25;;;10.80;92.10;;;;;;5024380;28;20024;-75
2023/02/18 04:47:35;;;;;;;13.80;5.47;;;10.70;91.60;;;;;;5035248;28;20044;-76
2023/02/18 04:50:01;;;;;;;9.35;5.32;;;10.80;91.40;;;;;;5020584;28;20453;-76
2023/02/18 04:52:26;;;;;;;11.77;4.25;;;10.80;91.30;;;;;;5037664;28;20041;-75
2023/02/18 04:54:52;;;;;;;13.48;5.53;;;10.80;90.90;;;;;;5037207;28;20056;-77
2023/02/18 04:57:18;;;;;;;12.20;5.28;;;10.80;90.90;;;;;;5040097;28;20037;-73
2023/02/18 04:59:43;;;;;;;14.43;4.57;;;10.80;90.70;;;;;;5036059;28;20052;-75
2023/02/18 05:02:09;;;;;;;13.32;4.90;;;10.80;90.60;;;;;;5035668;28;20601;-81
2023/02/18 05:04:34;;;;;;;14.35;4.63;;;10.80;90.40;;;;;;5019089;28;20078;-75
2023/02/18 05:07:00;;;;;;;14.25;4.45;;;10.80;90.20;;;;;;5018812;28;20053;-75
2023/02/18 05:09:26;;;;;;;14.13;4.35;;;10.80;90.00;;;;;;5039367;28;20040;-74
2023/02/18 05:11:52;;;;;;;16.77;4.07;;;10.80;89.70;;;;;;5037467;28;20033;-78
2023/02/18 05:14:17;;;;;;;16.30;4.32;;;10.80;89.30;;;;;;5036760;28;20033;-75
2023/02/18 05:16:43;;;;;;;15.73;4.22;;;10.80;89.30;;;;;;5038872;28;20612;-77
2023/02/18 05:19:13;;;;;;;16.73;4.88;;;10.80;89.10;;;;;;5038761;28;20531;-74
2023/02/18 05:21:39;;;;;;;16.73;4.22;;;10.80;88.70;;;;;;5039319;28;20112;-83
2023/02/18 05:24:05;;;;;;;22.27;4.50;;;10.80;88.40;;;;;;5043173;28;20174;-77
2023/02/18 05:26:30;;;;;;;15.43;4.03;;;10.70;88.20;;;;;;5042041;28;20025;-75
2023/02/18 05:28:56;;;;;;;17.75;4.95;;;10.80;87.50;;;;;;5024801;28;20068;-73
2023/02/18 05:31:22;;;;;;;17.75;3.95;;;10.80;87.60;;;;;;5040848;28;20041;-85
2023/02/18 05:33:47;;;;;;;16.02;3.83;;;10.70;86.90;;;;;;5039983;28;20112;-78
2023/02/18 05:36:13;;;;;;;15.07;4.13;;;10.80;86.60;;;;;;5039057;28;20699;-72
2023/02/18 05:38:39;;;;;;;18.13;4.10;;;10.70;85.80;;;;;;5036744;28;20161;-73
2023/02/18 05:41:04;;;;;;;16.25;3.60;;;10.70;85.30;;;;;;5039973;28;20033;-78
2023/02/18 05:44:28;;;;;;;11.88;3.20;;;10.80;85.40;;;;;;5039548;28;20493;-72
2023/02/18 05:46:16;;;;;;;18.42;4.57;;;10.80;84.30;;;;;;5037511;28;20124;-79
2023/02/18 05:48:41;;;;;;;20.80;3.97;;;10.80;83.90;;;;;;5039704;28;20487;-75
2023/02/18 05:51:07;;;;;;;12.85;3.40;;;10.80;83.70;;;;;;5039954;28;20548;-76
2023/02/18 05:53:33;;;;;;;15.73;3.38;;;10.80;83.70;;;;;;5039504;28;20477;-74
2023/02/18 05:55:58;;;;;;;16.88;3.72;;;10.90;82.80;;;;;;5040613;28;20056;-74
2023/02/18 05:58:24;;;;;;;12.73;3.45;;;10.90;82.70;;;;;;5041036;28;20100;-82
2023/02/18 06:00:49;;;;;;;18.58;3.40;;;10.90;82.40;;;;;;5041644;28;20041;-71
2023/02/18 06:03:15;;;;;;;16.80;4.20;;;10.90;82.60;;;;;;5043605;28;20045;-72
2023/02/18 06:05:41;;;;;;;16.23;3.83;;;10.90;82.50;;;;;;5041507;28;20123;-71
2023/02/18 06:08:06;;;;;;;15.60;3.58;;;10.90;82.20;;;;;;5042432;28;20051;-73
2023/02/18 06:10:33;;;;;;;18.02;4.85;;;10.80;82.40;;;;;;5041067;28;20465;-83
2023/02/18 06:13:01;;;;;;;21.05;4.68;;;10.90;82.40;;;;;;5041816;28;20470;-75
2023/02/18 06:15:26;;;;;;;19.50;4.03;;;10.80;82.20;;;;;;5038075;28;20109;-81
2023/02/18 06:17:52;;;;;;;17.85;4.05;;;10.80;82.20;;;;;;5038683;28;20055;-76
2023/02/18 06:20:18;;;;;;;17.70;3.92;;;10.80;82.30;;;;;;5039172;28;20468;-81
2023/02/18 06:22:44;;;;;;;17.70;3.33;;;10.80;82.00;;;;;;5021519;28;20079;-75
2023/02/18 06:25:10;;;;;;;14.27;2.90;;;10.80;81.60;;;;;;5024662;28;20032;-71
2023/02/18 06:27:35;;;;;;;17.38;3.30;;;10.80;81.50;;;;;;5040179;28;20037;-75
2023/02/18 06:30:01;;;;;;;12.35;2.83;;;10.90;80.90;;;;;;5041807;28;20060;-73
2023/02/18 06:32:27;;;;;;;16.92;2.88;;;10.90;80.80;;;;;;5039181;28;20056;-74
2023/02/18 06:34:52;;;;;;;17.40;3.78;;;10.90;80.70;;;;;;5042979;28;20029;-75
2023/02/18 06:37:18;;;;;;;14.80;3.30;;;10.90;80.80;;;;;;5024643;28;20396;-84
2023/02/18 06:39:44;;;;;;;11.40;2.70;;;10.90;81.00;;;;;;5042179;28;20033;-78
2023/02/18 06:42:09;;;;;;;11.18;2.45;;;10.80;80.60;;;;;;5040984;28;20128;-76
2023/02/18 06:44:35;;;;;;;11.00;2.50;;;10.90;80.40;;;;;;5039851;28;21704;-76
2023/02/18 06:47:01;;;;;;;12.20;2.90;;;10.80;80.20;;;;;;5044275;28;20052;-72
2023/02/18 06:49:26;;;;;;;15.98;3.13;;;10.90;80.20;;;;;;5042937;28;20084;-77
2023/02/18 06:51:52;;;;;;;9.18;2.65;;;10.90;79.80;;;;;;5042896;28;20413;-73
2023/02/18 06:54:18;;;;;;;13.63;3.08;;;10.90;80.00;;;;;;5040983;28;20037;-83
2023/02/18 06:56:43;;;;;;;9.35;2.55;;;10.90;79.80;;;;;;5045757;28;20029;-74
2023/02/18 06:59:10;;;;;;;16.05;2.90;;;11.00;80.00;;;;;;5047072;28;20033;-75
2023/02/18 07:01:36;;;;;;;13.88;2.58;;;10.90;79.50;;;;;;5045075;28;20048;-73
2023/02/18 07:04:02;;;;;;;10.85;2.25;;;11.00;79.30;;;;;;5047964;28;20060;-77
2023/02/18 07:06:27;;;;;;;16.08;2.70;;;11.00;79.00;;;;;;5041637;28;20107;-75
2023/02/18 07:08:53;;;;;;;12.93;3.10;;;10.90;79.00;;;;;;5028475;28;20024;-72
2023/02/18 07:11:19;;;;;;;11.20;2.97;;;10.90;78.80;;;;;;5046480;28;21653;-80
2023/02/18 07:13:44;;;;;;;10.73;2.60;;;10.90;79.10;;;;;;5042941;28;20036;-72
2023/02/18 07:16:10;;;;;;;11.85;2.60;;;11.00;79.10;;;;;;5028352;28;20045;-83
2023/02/18 07:18:36;;;;;;;10.68;2.65;;;10.90;79.60;;;;;;5044944;28;20032;-75
2023/02/18 07:21:01;;;;;;;13.10;2.78;;;10.90;79.80;;;;;;5025018;28;20092;-75
2023/02/18 07:23:27;;;;;;;14.20;3.13;;;10.90;80.00;;;;;;5032520;28;20642;-76
2023/02/18 07:26:05;;;;;;;15.55;3.53;;;10.80;80.30;;;;;;5029676;28;20466;-76
2023/02/18 07:28:31;;;;;;;13.13;2.80;;;10.90;80.50;;;;;;5032747;28;20121;-76
2023/02/18 07:30:57;;;;;;;11.32;3.03;;;10.80;80.50;;;;;;5031934;28;20033;-76
2023/02/18 07:33:22;;;;;;;11.77;2.97;;;10.80;80.80;;;;;;5019134;28;20028;-76
2023/02/18 07:35:53;;;;;;;15.30;2.85;;;10.90;80.60;;;;;;5016308;28;21559;-75
2023/02/18 07:38:19;;;;;;;12.80;2.85;;;11.00;80.50;;;;;;5013351;28;20598;-76
2023/02/18 07:40:45;;;;;;;12.48;3.55;;;10.90;80.70;;;;;;5032990;28;20041;-74
2023/02/18 07:43:10;;;;;;;10.40;3.00;;;10.90;80.80;;;;;;5031667;28;20397;-75
2023/02/18 07:45:37;;;;;;;15.02;3.05;;;11.00;80.50;;;;;;5029810;28;20668;-76
2023/02/18 07:48:03;;;;;;;17.25;3.47;;;10.90;80.70;;;;;;5027623;28;20041;-76
2023/02/18 07:50:33;;;;;;;12.40;3.58;;;10.90;80.80;;;;;;5025666;28;20024;-75
2023/02/18 07:53:03;;;;;;;19.85;3.28;;;10.90;80.70;;;;;;5028206;28;20156;-77
2023/02/18 07:58:22;;;;;;;13.77;3.20;;;11.10;80.50;;;;;;5027463;28;20036;-76
2023/02/18 08:00:48;;;;;;;;;;;11.00;80.60;;;;;;5027650;28;20041;-76
2023/02/18 08:03:15;;;;;;;16.17;3.92;;;11.00;80.70;;;;;;5030253;28;19974;-76
2023/02/18 08:05:41;;;;;;;13.77;3.40;;;11.10;80.70;;;;;;5024039;28;20792;-75
2023/02/18 08:08:09;;;;;;;14.40;3.45;;;11.10;80.90;;;;;;5039380;28;20091;-76
2023/02/18 08:10:34;;;;;;;15.13;3.25;;;11.10;80.90;;;;;;5034292;28;20021;-76
2023/02/18 08:13:00;;;;;;;15.27;3.20;;;11.10;80.90;;;;;;5040697;28;21969;-76
2023/02/18 08:15:26;;;;;;;14.10;3.08;;;11.10;81.00;;;;;;5039134;28;20037;-75
2023/02/18 08:17:51;;;;;;;17.15;3.40;;;11.10;80.90;;;;;;5043571;28;20055;-76
2023/02/18 08:20:17;;;;;;;14.02;3.17;;;11.00;81.20;;;;;;5044713;28;20035;-76
2023/02/18 08:22:43;;;;;;;15.70;3.47;;;11.00;81.30;;;;;;5040369;28;20473;-76
2023/02/18 08:25:08;;;;;;;15.95;3.10;;;11.10;81.10;;;;;;5025700;28;20109;-76
2023/02/18 08:27:34;;;;;;;12.63;3.53;;;11.10;81.30;;;;;;5035738;28;20681;-76
2023/02/18 08:30:00;;;;;;;13.35;2.78;;;11.10;81.20;;;;;;5034092;28;20045;-77
2023/02/18 08:32:28;;;;;;;15.02;3.38;;;11.10;81.30;;;;;;5017330;28;20052;-76
2023/02/18 08:34:55;;;;;;;12.75;3.28;;;11.10;81.40;;;;;;5030243;28;20067;-76
2023/02/18 08:37:21;;;;;;;14.38;3.35;;;11.10;81.20;;;;;;5029348;28;20118;-76
2023/02/18 08:39:46;;;;;;;11.82;2.95;;;11.20;81.10;;;;;;5034329;28;20033;-76
2023/02/18 08:42:12;;;;;;;11.63;3.05;;;11.20;81.10;;;;;;5036293;28;20080;-75
2023/02/18 08:44:38;;;;;;;17.30;3.08;;;11.20;81.10;;;;;;5037865;28;20067;-75
2023/02/18 08:47:04;;;;;;;17.27;3.35;;;11.30;81.00;;;;;;5035190;28;20033;-75
2023/02/18 08:49:29;;;;;;;11.50;2.88;;;11.40;81.20;;;;;;5035741;28;20029;-76
2023/02/18 08:51:55;;;;;;;12.73;3.22;;;11.30;81.00;;;;;;5032882;28;20038;-76
2023/02/18 08:54:20;;;;;;;12.93;2.95;;;11.40;81.20;;;;;;5031131;28;20021;-76
2023/02/18 08:56:46;;;;;;;11.15;3.00;;;11.50;81.00;;;;;;5037199;28;20132;-75
2023/02/18 08:59:12;;;;;;;15.35;3.92;;;11.60;81.00;;;;;;5036118;28;20052;-75
2023/02/18 09:01:37;;;;;;;10.55;3.35;;;11.60;81.00;;;;;;5033332;28;20072;-76
2023/02/18 09:04:03;;;;;;;12.65;3.20;;;11.60;80.70;;;;;;5034692;28;20104;-76
2023/02/18 09:06:29;;;;;;;17.23;3.28;;;11.60;80.80;;;;;;5034917;28;20045;-76
2023/02/18 09:08:55;;;;;;;15.68;3.53;;;11.60;80.90;;;;;;5031000;28;20380;-76
2023/02/18 09:11:20;;;;;;;13.02;3.15;;;11.50;81.10;;;;;;5036018;28;20033;-76
2023/02/18 09:13:46;;;;;;;13.38;4.28;;;11.60;81.30;;;;;;5037094;28;20037;-75
2023/02/18 09:16:17;;;;;;;16.15;3.83;;;11.60;81.30;;;;;;5039663;28;20037;-76
2023/02/18 09:18:43;;;;;;;14.50;3.42;;;11.60;81.30;;;;;;5035944;28;20366;-76
2023/02/18 09:21:12;;;;;;;17.65;3.78;;;11.60;81.50;;;;;;5034231;28;20055;-75
2023/02/18 09:23:38;;;;;;;14.77;3.38;;;11.60;81.60;;;;;;5017904;28;20103;-76
2023/02/18 09:26:09;;;;;;;14.23;3.40;;;11.60;81.80;;;;;;5017464;28;20037;-76
2023/02/18 09:28:36;;;;;;;17.65;4.45;;;11.70;81.70;;;;;;5037585;28;20046;-76
2023/02/18 09:31:15;;;;;;;16.58;3.70;;;11.80;81.60;;;;;;5043925;28;20078;-75
2023/02/18 09:33:45;;;;;;;15.93;3.30;;;11.80;81.60;;;;;;5044072;28;20167;-76
2023/02/18 09:36:10;;;;;;;13.07;3.30;;;11.70;81.80;;;;;;5040375;28;20040;-76
2023/02/18 09:38:36;;;;;;;13.60;3.58;;;11.80;81.70;;;;;;5043608;28;20029;-76
2023/02/18 09:41:05;;;;;;;16.42;3.22;;;11.80;82.00;;;;;;5043803;28;20048;-76
2023/02/18 09:43:48;;;;;;;17.17;3.88;;;11.80;81.90;;;;;;5037001;28;20038;-76
2023/02/18 09:46:31;;;;;;;12.60;4.00;;;11.80;81.90;;;;;;5047014;28;20411;-76
2023/02/18 09:49:06;;;;;;;17.30;3.65;;;11.80;81.70;;;;;;5049182;28;20032;-76
2023/02/18 09:51:31;;;;;;;12.02;2.80;;;11.80;82.20;;;;;;5050095;28;20033;-76
2023/02/18 09:53:58;;;;;;;15.60;3.78;;;11.80;82.30;;;;;;5035752;28;20055;-76
2023/02/18 09:56:35;;;;;;;15.00;3.92;;;11.90;82.40;;;;;;5036434;28;20041;-75
2023/02/18 09:59:04;;;;;;;13.57;2.95;;;12.00;82.20;;;;;;5042521;28;20064;-74
2023/02/18 10:01:32;;;;;;;14.70;2.80;;;12.00;82.00;;;;;;5040662;28;20041;-76
2023/02/18 10:04:01;;;;;;;20.67;4.05;;;12.00;82.00;;;;;;5050082;28;20037;-75
2023/02/18 10:06:31;;;;;;;12.48;3.17;;;12.10;82.00;;;;;;5044638;28;20480;-76
2023/02/18 10:09:04;;;;;;;13.35;3.42;;;12.10;82.00;;;;;;5046106;28;20273;-76
2023/02/18 10:11:40;;;;;;;13.82;4.35;;;12.00;82.20;;;;;;5041167;28;20469;-75
2023/02/18 10:14:13;;;;;;;17.45;3.55;;;12.00;82.40;;;;;;5049469;28;20378;-75
2023/02/18 10:16:39;;;;;;;17.95;3.65;;;12.00;82.30;;;;;;5041867;28;20037;-75
2023/02/18 10:19:35;;;;;;;13.18;3.50;;;12.00;82.20;;;;;;5054765;28;20025;-75
2023/02/18 10:22:01;;;;;;;;;;;12.10;82.10;;;;;;5042812;28;20049;-76
2023/02/18 10:25:00;;;;;;;18.60;4.35;;;12.00;82.20;;;;;;5052675;28;19919;-77
2023/02/18 10:27:33;;;;;;;16.60;3.53;;;12.10;82.30;;;;;;5042601;28;20098;-75
2023/02/18 10:30:31;;;;;;;14.90;3.95;;;12.10;82.10;;;;;;5053442;28;20052;-75
2023/02/18 10:33:16;;;;;;;15.63;3.28;;;12.10;82.10;;;;;;5047544;28;20049;-75
2023/02/18 10:35:52;;;;;;;10.40;3.42;;;12.10;81.90;;;;;;5043796;28;20227;-76
2023/02/18 10:38:30;;;;;;;20.35;3.70;;;12.10;81.70;;;;;;5046163;28;20067;-77
2023/02/18 10:41:33;;;;;;;15.98;3.70;;;12.10;81.80;;;;;;5045766;28;20513;-76
2023/02/18 10:44:34;;;;;;;18.05;3.47;;;12.10;81.70;;;;;;4937999;28;20124;-76
2023/02/18 10:47:08;;;;;;;12.52;3.30;;;12.20;81.70;;;;;;5048986;28;20045;-76
2023/02/18 10:49:50;;;;;;;12.95;2.83;;;12.20;81.50;;;;;;5048802;28;20028;-76
2023/02/18 10:52:18;;;;;;;18.83;3.33;;;12.30;81.40;;;;;;5046053;28;20069;-77
2023/02/18 10:54:48;;;;;;;15.60;3.08;;;12.40;80.90;;;;;;5046676;28;20064;-75
2023/02/18 10:57:22;;;;;;;13.80;3.05;;;12.40;80.70;;;;;;5046043;28;20040;-76
2023/02/18 11:00:01;;;;;;;14.87;3.17;;;12.40;80.50;;;;;;5047168;28;20132;-77
2023/02/18 11:02:31;;;;;;;16.05;3.42;;;12.50;80.50;;;;;;5046814;28;20921;-76
2023/02/18 11:04:59;;;;;;;14.18;3.30;;;12.50;80.50;;;;;;5051697;28;20025;-77
2023/02/18 11:07:30;;;;;;;17.17;3.00;;;12.60;80.30;;;;;;5027844;28;20032;-77
2023/02/18 11:09:59;;;;;;;11.18;3.28;;;12.60;80.30;;;;;;5045486;28;20105;-77
2023/02/18 11:12:39;;;;;;;13.80;2.88;;;12.60;80.00;;;;;;5048612;28;20044;-77
2023/02/18 11:15:12;;;;;;;18.17;3.08;;;12.60;79.80;;;;;;5051383;28;20071;-77
2023/02/18 11:17:39;;;;;;;14.05;3.53;;;12.70;79.60;;;;;;5044960;28;20569;-77
2023/02/18 11:20:22;;;;;;;10.68;3.03;;;12.70;79.20;;;;;;5032647;28;20036;-78
2023/02/18 11:22:48;;;;;;;16.83;3.70;;;12.70;79.40;;;;;;5038254;28;20172;-78
2023/02/18 11:25:23;;;;;;;12.60;3.50;;;12.70;79.40;;;;;;5040282;28;20392;-76
2023/02/18 11:27:55;;;;;;;17.83;3.40;;;12.60;79.70;;;;;;5026834;28;20025;-78
2023/02/18 11:30:25;;;;;;;12.40;3.40;;;12.50;80.00;;;;;;5041125;28;20037;-78
2023/02/18 11:32:55;;;;;;;10.45;3.20;;;12.50;80.30;;;;;;5039249;28;20512;-77
2023/02/18 11:35:28;;;;;;;15.00;3.42;;;12.50;80.20;;;;;;5041652;28;20028;-77
2023/02/18 11:37:57;;;;;;;13.52;3.08;;;12.50;80.10;;;;;;5048408;28;20047;-77
2023/02/18 11:40:30;;;;;;;12.00;3.45;;;12.60;80.20;;;;;;5051727;28;20090;-76
2023/02/18 11:43:19;;;;;;;14.45;3.20;;;12.60;80.00;;;;;;5055633;28;20036;-77
2023/02/18 11:45:45;;;;;;;16.38;3.55;;;12.50;80.10;;;;;;5022820;28;20132;-78
2023/02/18 11:48:17;;;;;;;16.45;3.30;;;12.60;80.10;;;;;;5053969;28;20088;-78
2023/02/18 11:50:44;;;;;;;12.73;2.58;;;12.60;80.20;;;;;;5047327;28;20032;-76
2023/02/18 11:53:32;;;;;;;12.88;3.53;;;12.70;80.00;;;;;;5024591;28;20032;-77
2023/02/18 11:56:00;;;;;;;12.48;2.95;;;12.60;80.20;;;;;;5045117;28;20032;-76
2023/02/18 11:58:27;;;;;;;17.40;3.30;;;12.60;80.10;;;;;;5045487;28;20380;-76
2023/02/18 12:00:59;;;;;;;11.82;3.50;;;12.60;80.30;;;;;;5046260;28;20589;-77
2023/02/18 12:03:47;;;;;;;13.23;3.60;;;12.60;80.60;;;;;;5043772;28;20059;-76
2023/02/18 12:06:21;;;;;;;14.35;3.55;;;12.60;80.60;;;;;;5045540;28;20348;-77
2023/02/18 12:09:03;;;;;;;12.07;3.53;;;12.60;80.40;;;;;;5044776;28;20477;-78
2023/02/18 12:11:39;;;;;;;12.43;3.50;;;12.60;80.70;;;;;;5041806;28;20083;-76
2023/02/18 12:14:11;;;;;;;12.43;3.40;;;12.60;80.70;;;;;;5049412;28;20043;-77
2023/02/18 12:16:40;;;;;;;13.95;3.50;;;12.70;80.80;;;;;;5041045;28;20041;-76
2023/02/18 12:19:36;;;;;;;10.60;3.22;;;12.70;80.70;;;;;;5035220;28;20033;-77
2023/02/18 12:22:21;;;;;;;15.05;4.10;;;12.70;80.60;;;;;;5046712;28;20044;-77
2023/02/18 12:25:14;;;;;;;13.25;3.55;;;12.80;80.60;;;;;;5043160;28;20037;-77
2023/02/18 12:28:06;;;;;;;11.93;3.58;;;12.80;80.70;;;;;;5033822;28;20043;-76
2023/02/18 12:31:00;;;;;;;14.50;3.92;;;12.70;81.00;;;;;;5044403;28;20086;-80
2023/02/18 12:33:47;;;;;;;16.92;4.30;;;12.70;81.20;;;;;;5045910;28;20476;-82
2023/02/18 12:36:51;;;;;;;11.13;3.45;;;12.60;81.50;;;;;;5031858;28;20037;-80
2023/02/18 12:39:30;;;;;;;10.82;2.90;;;12.70;81.50;;;;;;5060531;28;20060;-82
2023/02/18 12:42:23;;;;;;;12.88;3.70;;;12.70;81.50;;;;;;5050794;28;20029;-83
2023/02/18 12:45:01;;;;;;;10.75;3.35;;;12.60;81.90;;;;;;4998159;28;20040;-82
2023/02/18 12:47:35;;;;;;;14.20;3.55;;;12.60;81.90;;;;;;5035113;28;20059;-82
2023/02/18 12:50:10;;;;;;;13.43;4.20;;;12.60;82.10;;;;;;5042752;28;20027;-81
2023/02/18 12:52:55;;;;;;;11.18;3.63;;;12.50;82.30;;;;;;5029711;28;20059;-77
2023/02/18 12:55:29;;;;;;;12.68;3.80;;;12.60;82.50;;;;;;5051958;28;20037;-82